sensor_id;sensor_type;location;lat;lon;timestamp;pressure;altitude;pressure_sealevel;temperature;humidity
68988;BME280;56038;46.080;11.116;2023-02-13T00:01:17;101422.03;;;4.00;53.05
68988;BME280;56038;46.080;11.116;2023-02-13T00:06:19;101425.53;;;4.02;52.44
68988;BME280;56038;46.080;11.116;2023-02-13T00:11:22;101422.75;;;3.94;52.62
68988;BME280;56038;46.080;11.116;2023-02-13T00:16:24;101419.09;;;3.81;54.64
68988;BME280;56038;46.080;11.116;2023-02-13T00:21:26;101429.25;;;3.74;54.08
68988;BME280;56038;46.080;11.116;2023-02-13T00:26:29;101422.28;;;3.70;54.26
68988;BME280;56038;46.080;11.116;2023-02-13T00:31:30;101425.66;;;3.66;53.98
68988;BME280;56038;46.080;11.116;2023-02-13T00:36:32;101431.72;;;3.68;53.79
68988;BME280;56038;46.080;11.116;2023-02-13T00:41:35;101442.75;;;3.60;53.84
68988;BME280;56038;46.080;11.116;2023-02-13T00:46:37;101441.00;;;3.59;53.84
68988;BME280;56038;46.080;11.116;2023-02-13T00:51:39;101442.34;;;3.41;54.54
68988;BME280;56038;46.080;11.116;2023-02-13T00:56:42;101444.66;;;3.30;55.42
68988;BME280;56038;46.080;11.116;2023-02-13T01:01:44;101439.41;;;3.25;54.89
68988;BME280;56038;46.080;11.116;2023-02-13T01:06:45;101444.59;;;3.27;55.37
68988;BME280;56038;46.080;11.116;2023-02-13T01:11:48;101438.59;;;3.28;54.80
68988;BME280;56038;46.080;11.116;2023-02-13T01:16:50;101449.91;;;3.32;54.60
68988;BME280;56038;46.080;11.116;2023-02-13T01:21:52;101454.00;;;3.23;55.11
68988;BME280;56038;46.080;11.116;2023-02-13T01:26:55;101451.03;;;3.07;56.12
68988;BME280;56038;46.080;11.116;2023-02-13T01:31:57;101452.63;;;3.02;56.33
68988;BME280;56038;46.080;11.116;2023-02-13T01:36:59;101452.69;;;3.05;55.73
68988;BME280;56038;46.080;11.116;2023-02-13T01:42:02;101453.47;;;3.00;55.77
68988;BME280;56038;46.080;11.116;2023-02-13T01:47:04;101454.91;;;2.89;56.84
68988;BME280;56038;46.080;11.116;2023-02-13T01:52:07;101439.50;;;2.92;56.35
68988;BME280;56038;46.080;11.116;2023-02-13T01:57:14;101452.59;;;3.00;56.42
68988;BME280;56038;46.080;11.116;2023-02-13T02:02:17;101453.38;;;2.97;56.44
68988;BME280;56038;46.080;11.116;2023-02-13T02:07:22;101450.53;;;2.85;56.57
68988;BME280;56038;46.080;11.116;2023-02-13T02:12:30;101448.63;;;2.80;57.11
68988;BME280;56038;46.080;11.116;2023-02-13T02:17:34;101452.06;;;2.79;57.09
68988;BME280;56038;46.080;11.116;2023-02-13T02:28:30;101453.59;;;2.70;59.28
68988;BME280;56038;46.080;11.116;2023-02-13T02:33:49;101456.00;;;2.64;58.41
68988;BME280;56038;46.080;11.116;2023-02-13T02:39:02;101456.66;;;2.56;58.50
68988;BME280;56038;46.080;11.116;2023-02-13T02:44:16;101452.16;;;2.49;58.19
68988;BME280;56038;46.080;11.116;2023-02-13T02:49:22;101461.44;;;2.42;58.13
68988;BME280;56038;46.080;11.116;2023-02-13T02:54:44;101460.25;;;2.29;59.17
68988;BME280;56038;46.080;11.116;2023-02-13T03:00:07;101460.97;;;2.24;58.97
68988;BME280;56038;46.080;11.116;2023-02-13T03:05:43;101465.13;;;2.20;59.37
68988;BME280;56038;46.080;11.116;2023-02-13T03:11:03;101468.78;;;2.27;58.35
68988;BME280;56038;46.080;11.116;2023-02-13T03:16:24;101466.31;;;2.31;57.89
68988;BME280;56038;46.080;11.116;2023-02-13T03:21:48;101467.81;;;2.23;58.49
68988;BME280;56038;46.080;11.116;2023-02-13T03:27:16;101461.41;;;2.09;59.77
68988;BME280;56038;46.080;11.116;2023-02-13T03:32:46;101453.28;;;1.95;59.91
68988;BME280;56038;46.080;11.116;2023-02-13T03:37:55;101461.97;;;1.99;59.54
68988;BME280;56038;46.080;11.116;2023-02-13T03:43:05;101464.72;;;2.05;58.96
68988;BME280;56038;46.080;11.116;2023-02-13T03:48:09;101460.38;;;2.04;59.43
68988;BME280;56038;46.080;11.116;2023-02-13T03:53:34;101462.72;;;1.95;61.40
68988;BME280;56038;46.080;11.116;2023-02-13T03:58:42;101461.41;;;1.79;61.70
68988;BME280;56038;46.080;11.116;2023-02-13T04:04:08;101462.38;;;1.83;60.79
68988;BME280;56038;46.080;11.116;2023-02-13T04:09:12;101458.31;;;1.91;60.03
68988;BME280;56038;46.080;11.116;2023-02-13T04:14:18;101463.41;;;1.89;59.91
68988;BME280;56038;46.080;11.116;2023-02-13T04:19:23;101474.63;;;1.90;59.80
68988;BME280;56038;46.080;11.116;2023-02-13T04:24:27;101465.84;;;1.85;59.65
68988;BME280;56038;46.080;11.116;2023-02-13T04:29:29;101458.03;;;1.82;60.22
68988;BME280;56038;46.080;11.116;2023-02-13T04:39:34;101472.34;;;1.72;60.20
68988;BME280;56038;46.080;11.116;2023-02-13T04:44:36;101468.16;;;1.74;60.12
68988;BME280;56038;46.080;11.116;2023-02-13T04:49:38;101469.69;;;1.69;60.59
68988;BME280;56038;46.080;11.116;2023-02-13T04:54:41;101461.72;;;1.60;60.60
68988;BME280;56038;46.080;11.116;2023-02-13T04:59:42;101464.28;;;1.60;60.87
68988;BME280;56038;46.080;11.116;2023-02-13T05:04:44;101460.69;;;1.55;60.79
68988;BME280;56038;46.080;11.116;2023-02-13T05:09:47;101458.16;;;1.56;61.20
68988;BME280;56038;46.080;11.116;2023-02-13T05:14:49;101459.81;;;1.54;61.22
68988;BME280;56038;46.080;11.116;2023-02-13T05:19:51;101453.75;;;1.52;61.66
68988;BME280;56038;46.080;11.116;2023-02-13T05:24:54;101470.88;;;1.52;60.98
68988;BME280;56038;46.080;11.116;2023-02-13T05:29:56;101460.25;;;1.41;62.01
68988;BME280;56038;46.080;11.116;2023-02-13T05:34:57;101465.81;;;1.26;63.53
68988;BME280;56038;46.080;11.116;2023-02-13T05:40:00;101481.31;;;1.28;62.47
68988;BME280;56038;46.080;11.116;2023-02-13T05:45:02;101480.81;;;1.39;61.91
68988;BME280;56038;46.080;11.116;2023-02-13T05:50:06;101493.03;;;1.45;61.50
68988;BME280;56038;46.080;11.116;2023-02-13T05:55:09;101496.59;;;1.50;61.38
68988;BME280;56038;46.080;11.116;2023-02-13T06:00:12;101500.09;;;1.52;61.52
68988;BME280;56038;46.080;11.116;2023-02-13T06:05:14;101493.06;;;1.46;61.56
68988;BME280;56038;46.080;11.116;2023-02-13T06:10:17;101498.22;;;1.46;62.09
68988;BME280;56038;46.080;11.116;2023-02-13T06:15:19;101513.19;;;1.31;63.08
68988;BME280;56038;46.080;11.116;2023-02-13T06:20:21;101518.03;;;1.22;63.66
68988;BME280;56038;46.080;11.116;2023-02-13T06:25:24;101522.34;;;1.23;63.39
68988;BME280;56038;46.080;11.116;2023-02-13T06:30:26;101529.28;;;1.26;63.59
68988;BME280;56038;46.080;11.116;2023-02-13T06:35:28;101532.84;;;1.29;63.29
68988;BME280;56038;46.080;11.116;2023-02-13T06:40:31;101536.66;;;1.42;63.23
68988;BME280;56038;46.080;11.116;2023-02-13T06:45:32;101526.50;;;1.45;62.99
68988;BME280;56038;46.080;11.116;2023-02-13T06:50:34;101526.50;;;1.45;63.14
68988;BME280;56038;46.080;11.116;2023-02-13T06:55:37;101529.16;;;1.48;63.11
68988;BME280;56038;46.080;11.116;2023-02-13T07:00:39;101527.50;;;1.50;63.78
68988;BME280;56038;46.080;11.116;2023-02-13T07:05:43;101532.53;;;1.45;64.73
68988;BME280;56038;46.080;11.116;2023-02-13T07:10:47;101535.31;;;1.53;63.66
68988;BME280;56038;46.080;11.116;2023-02-13T07:15:48;101526.06;;;1.58;64.10
68988;BME280;56038;46.080;11.116;2023-02-13T07:20:50;101525.41;;;1.65;63.65
68988;BME280;56038;46.080;11.116;2023-02-13T07:25:53;101531.47;;;1.67;63.82
68988;BME280;56038;46.080;11.116;2023-02-13T07:30:55;101532.44;;;1.71;63.78
68988;BME280;56038;46.080;11.116;2023-02-13T07:35:57;101530.94;;;1.77;64.09
68988;BME280;56038;46.080;11.116;2023-02-13T07:41:01;101534.19;;;2.00;63.97
68988;BME280;56038;46.080;11.116;2023-02-13T07:46:03;101532.78;;;2.12;63.53
68988;BME280;56038;46.080;11.116;2023-02-13T07:51:05;101530.59;;;2.25;62.83
68988;BME280;56038;46.080;11.116;2023-02-13T07:56:09;101529.38;;;2.43;62.41
68988;BME280;56038;46.080;11.116;2023-02-13T08:01:13;101531.66;;;2.63;61.67
68988;BME280;56038;46.080;11.116;2023-02-13T08:06:15;101527.06;;;2.85;60.88
68988;BME280;56038;46.080;11.116;2023-02-13T08:11:23;101525.13;;;3.11;59.86
68988;BME280;56038;46.080;11.116;2023-02-13T08:16:44;101522.22;;;3.32;58.61
68988;BME280;56038;46.080;11.116;2023-02-13T08:21:46;101520.97;;;3.52;58.15
68988;BME280;56038;46.080;11.116;2023-02-13T08:26:49;101517.81;;;3.65;58.05
68988;BME280;56038;46.080;11.116;2023-02-13T08:31:51;101514.94;;;3.92;57.08
68988;BME280;56038;46.080;11.116;2023-02-13T08:36:53;101508.56;;;4.15;56.59
68988;BME280;56038;46.080;11.116;2023-02-13T08:41:56;101508.06;;;4.35;55.62
68988;BME280;56038;46.080;11.116;2023-02-13T08:46:57;101505.97;;;4.61;54.92
68988;BME280;56038;46.080;11.116;2023-02-13T08:52:02;101508.31;;;4.95;54.51
68988;BME280;56038;46.080;11.116;2023-02-13T08:57:05;101495.06;;;5.31;53.59
68988;BME280;56038;46.080;11.116;2023-02-13T09:02:09;101494.13;;;5.85;54.12
68988;BME280;56038;46.080;11.116;2023-02-13T09:07:11;101483.38;;;6.21;51.82
68988;BME280;56038;46.080;11.116;2023-02-13T09:12:15;101478.84;;;6.90;52.32
68988;BME280;56038;46.080;11.116;2023-02-13T09:17:17;101476.19;;;8.21;50.08
68988;BME280;56038;46.080;11.116;2023-02-13T09:22:19;101464.19;;;9.19;46.37
68988;BME280;56038;46.080;11.116;2023-02-13T09:27:22;101468.50;;;9.38;45.00
68988;BME280;56038;46.080;11.116;2023-02-13T09:32:24;101466.50;;;10.23;44.10
68988;BME280;56038;46.080;11.116;2023-02-13T09:37:26;101462.91;;;10.43;42.79
68988;BME280;56038;46.080;11.116;2023-02-13T09:42:32;101460.59;;;11.16;41.50
68988;BME280;56038;46.080;11.116;2023-02-13T09:47:38;101464.06;;;12.04;40.53
68988;BME280;56038;46.080;11.116;2023-02-13T09:52:43;101454.50;;;12.63;39.49
68988;BME280;56038;46.080;11.116;2023-02-13T09:57:52;101447.94;;;12.34;38.76
68988;BME280;56038;46.080;11.116;2023-02-13T10:03:16;101441.75;;;12.92;37.98
68988;BME280;56038;46.080;11.116;2023-02-13T10:08:27;101440.59;;;13.11;36.95
68988;BME280;56038;46.080;11.116;2023-02-13T10:13:46;101439.84;;;13.53;36.28
68988;BME280;56038;46.080;11.116;2023-02-13T10:18:54;101431.22;;;13.91;36.67
68988;BME280;56038;46.080;11.116;2023-02-13T10:24:00;101420.03;;;13.81;35.34
68988;BME280;56038;46.080;11.116;2023-02-13T10:29:10;101422.00;;;14.52;35.78
68988;BME280;56038;46.080;11.116;2023-02-13T10:34:36;101407.66;;;14.26;34.49
68988;BME280;56038;46.080;11.116;2023-02-13T10:39:40;101401.00;;;14.86;34.91
68988;BME280;56038;46.080;11.116;2023-02-13T10:44:53;101386.41;;;15.07;32.99
68988;BME280;56038;46.080;11.116;2023-02-13T10:50:06;101378.78;;;14.96;33.38
68988;BME280;56038;46.080;11.116;2023-02-13T10:55:22;101370.72;;;15.67;32.40
68988;BME280;56038;46.080;11.116;2023-02-13T11:00:31;101359.44;;;15.92;33.45
68988;BME280;56038;46.080;11.116;2023-02-13T11:05:38;101341.28;;;15.82;32.71
68988;BME280;56038;46.080;11.116;2023-02-13T11:10:42;101336.44;;;15.97;32.96
68988;BME280;56038;46.080;11.116;2023-02-13T11:15:57;101314.78;;;16.15;30.96
68988;BME280;56038;46.080;11.116;2023-02-13T11:21:04;101316.72;;;15.51;32.80
68988;BME280;56038;46.080;11.116;2023-02-13T11:26:10;101313.47;;;15.41;32.21
68988;BME280;56038;46.080;11.116;2023-02-13T11:31:22;101297.06;;;17.21;29.21
68988;BME280;56038;46.080;11.116;2023-02-13T11:36:27;101286.66;;;17.87;29.17
68988;BME280;56038;46.080;11.116;2023-02-13T11:41:30;101273.78;;;18.21;28.64
68988;BME280;56038;46.080;11.116;2023-02-13T11:46:46;101278.97;;;19.06;26.18
68988;BME280;56038;46.080;11.116;2023-02-13T11:51:50;101278.91;;;19.07;27.21
68988;BME280;56038;46.080;11.116;2023-02-13T11:56:54;101264.78;;;19.46;27.08
68988;BME280;56038;46.080;11.116;2023-02-13T12:02:16;101253.28;;;20.19;23.98
68988;BME280;56038;46.080;11.116;2023-02-13T12:07:21;101250.97;;;19.00;26.36
68988;BME280;56038;46.080;11.116;2023-02-13T12:12:25;101239.38;;;19.03;24.11
68988;BME280;56038;46.080;11.116;2023-02-13T12:17:31;101234.22;;;19.94;24.96
68988;BME280;56038;46.080;11.116;2023-02-13T12:22:42;101235.97;;;19.38;25.47
68988;BME280;56038;46.080;11.116;2023-02-13T12:27:57;101227.19;;;18.80;25.95
68988;BME280;56038;46.080;11.116;2023-02-13T12:33:13;101222.53;;;18.85;25.56
68988;BME280;56038;46.080;11.116;2023-02-13T12:38:26;101211.03;;;18.86;25.75
68988;BME280;56038;46.080;11.116;2023-02-13T12:43:58;101194.66;;;18.97;24.43
68988;BME280;56038;46.080;11.116;2023-02-13T12:49:19;101189.44;;;18.95;24.03
68988;BME280;56038;46.080;11.116;2023-02-13T12:54:35;101181.13;;;19.03;24.78
68988;BME280;56038;46.080;11.116;2023-02-13T12:59:44;101176.91;;;19.18;23.96
68988;BME280;56038;46.080;11.116;2023-02-13T13:05:03;101173.16;;;18.84;25.49
68988;BME280;56038;46.080;11.116;2023-02-13T13:10:22;101162.19;;;18.73;25.28
68988;BME280;56038;46.080;11.116;2023-02-13T13:15:30;101149.75;;;18.75;24.00
68988;BME280;56038;46.080;11.116;2023-02-13T13:21:00;101148.38;;;18.46;24.79
68988;BME280;56038;46.080;11.116;2023-02-13T13:26:14;101149.63;;;17.96;25.24
68988;BME280;56038;46.080;11.116;2023-02-13T13:31:18;101142.81;;;17.03;27.04
68988;BME280;56038;46.080;11.116;2023-02-13T13:36:34;101138.44;;;15.81;28.11
68988;BME280;56038;46.080;11.116;2023-02-13T13:41:41;101127.47;;;16.18;28.50
68988;BME280;56038;46.080;11.116;2023-02-13T13:46:55;101130.84;;;16.22;28.62
68988;BME280;56038;46.080;11.116;2023-02-13T13:52:20;101129.28;;;15.91;28.64
68988;BME280;56038;46.080;11.116;2023-02-13T13:57:23;101123.75;;;15.18;30.05
68988;BME280;56038;46.080;11.116;2023-02-13T14:02:42;101124.56;;;15.20;29.78
68988;BME280;56038;46.080;11.116;2023-02-13T14:07:47;101128.13;;;14.60;30.96
68988;BME280;56038;46.080;11.116;2023-02-13T14:12:59;101116.50;;;14.34;31.47
68988;BME280;56038;46.080;11.116;2023-02-13T14:18:02;101117.47;;;14.32;31.37
68988;BME280;56038;46.080;11.116;2023-02-13T14:23:25;101107.41;;;14.15;31.44
68988;BME280;56038;46.080;11.116;2023-02-13T14:28:28;101118.56;;;13.92;31.70
68988;BME280;56038;46.080;11.116;2023-02-13T14:33:31;101105.03;;;13.73;31.98
68988;BME280;56038;46.080;11.116;2023-02-13T14:38:35;101101.28;;;13.48;32.06
68988;BME280;56038;46.080;11.116;2023-02-13T14:43:46;101093.44;;;13.46;32.00
68988;BME280;56038;46.080;11.116;2023-02-13T14:48:54;101106.69;;;13.42;32.37
68988;BME280;56038;46.080;11.116;2023-02-13T14:54:03;101097.25;;;13.33;40.22
68988;BME280;56038;46.080;11.116;2023-02-13T14:59:11;101098.00;;;13.38;34.21
68988;BME280;56038;46.080;11.116;2023-02-13T15:04:20;101101.19;;;12.74;35.23
68988;BME280;56038;46.080;11.116;2023-02-13T15:09:33;101099.38;;;12.36;36.69
68988;BME280;56038;46.080;11.116;2023-02-13T15:14:38;101096.34;;;12.11;36.44
68988;BME280;56038;46.080;11.116;2023-02-13T15:19:44;101102.09;;;11.82;38.51
68988;BME280;56038;46.080;11.116;2023-02-13T15:24:49;101096.22;;;11.66;38.28
68988;BME280;56038;46.080;11.116;2023-02-13T15:29:59;101086.97;;;11.47;39.59
68988;BME280;56038;46.080;11.116;2023-02-13T15:35:01;101095.00;;;11.34;38.83
68988;BME280;56038;46.080;11.116;2023-02-13T15:40:22;101089.97;;;11.22;40.64
68988;BME280;56038;46.080;11.116;2023-02-13T15:45:25;101091.00;;;11.12;39.99
68988;BME280;56038;46.080;11.116;2023-02-13T15:50:33;101089.41;;;11.02;41.42
68988;BME280;56038;46.080;11.116;2023-02-13T15:56:03;101100.13;;;10.82;42.53
68988;BME280;56038;46.080;11.116;2023-02-13T16:01:06;101101.13;;;10.72;41.05
68988;BME280;56038;46.080;11.116;2023-02-13T16:06:12;101113.44;;;10.64;41.57
68988;BME280;56038;46.080;11.116;2023-02-13T16:11:29;101115.28;;;10.54;43.61
68988;BME280;56038;46.080;11.116;2023-02-13T16:16:40;101122.41;;;10.43;44.20
68988;BME280;56038;46.080;11.116;2023-02-13T16:21:47;101122.50;;;10.34;43.50
68988;BME280;56038;46.080;11.116;2023-02-13T16:26:51;101133.09;;;10.22;43.53
68988;BME280;56038;46.080;11.116;2023-02-13T16:32:03;101139.25;;;10.13;44.95
68988;BME280;56038;46.080;11.116;2023-02-13T16:37:27;101145.44;;;10.01;45.79
68988;BME280;56038;46.080;11.116;2023-02-13T16:42:31;101149.94;;;9.84;45.22
68988;BME280;56038;46.080;11.116;2023-02-13T16:47:33;101164.84;;;9.70;45.29
68988;BME280;56038;46.080;11.116;2023-02-13T16:52:36;101171.88;;;9.61;46.05
68988;BME280;56038;46.080;11.116;2023-02-13T16:57:39;101171.13;;;9.47;46.60
68988;BME280;56038;46.080;11.116;2023-02-13T17:02:44;101173.78;;;9.38;48.14
68988;BME280;56038;46.080;11.116;2023-02-13T17:07:48;101184.25;;;9.34;47.66
68988;BME280;56038;46.080;11.116;2023-02-13T17:12:54;101199.03;;;9.28;48.27
68988;BME280;56038;46.080;11.116;2023-02-13T17:17:57;101203.41;;;9.23;46.56
68988;BME280;56038;46.080;11.116;2023-02-13T17:23:01;101213.91;;;9.16;46.97
68988;BME280;56038;46.080;11.116;2023-02-13T17:28:12;101222.56;;;9.15;47.38
68988;BME280;56038;46.080;11.116;2023-02-13T17:33:16;101226.06;;;9.11;46.65
68988;BME280;56038;46.080;11.116;2023-02-13T17:38:20;101221.75;;;8.99;46.68
68988;BME280;56038;46.080;11.116;2023-02-13T17:43:25;101236.53;;;8.98;46.76
68988;BME280;56038;46.080;11.116;2023-02-13T17:48:28;101234.84;;;8.88;49.41
68988;BME280;56038;46.080;11.116;2023-02-13T17:53:30;101243.56;;;8.80;47.03
68988;BME280;56038;46.080;11.116;2023-02-13T17:58:33;101247.94;;;8.73;46.74
68988;BME280;56038;46.080;11.116;2023-02-13T18:03:35;101251.41;;;8.61;47.04
68988;BME280;56038;46.080;11.116;2023-02-13T18:08:37;101248.84;;;8.43;47.40
68988;BME280;56038;46.080;11.116;2023-02-13T18:13:40;101249.72;;;8.45;48.05
68988;BME280;56038;46.080;11.116;2023-02-13T18:18:47;101237.53;;;8.27;48.04
68988;BME280;56038;46.080;11.116;2023-02-13T18:23:51;101254.03;;;8.14;48.22
68988;BME280;56038;46.080;11.116;2023-02-13T18:28:54;101254.91;;;8.05;48.33
68988;BME280;56038;46.080;11.116;2023-02-13T18:33:55;101248.84;;;7.93;48.69
68988;BME280;56038;46.080;11.116;2023-02-13T18:38:57;101262.69;;;7.79;49.20
68988;BME280;56038;46.080;11.116;2023-02-13T18:44:01;101263.53;;;7.68;49.09
68988;BME280;56038;46.080;11.116;2023-02-13T18:49:03;101267.84;;;7.58;49.87
68988;BME280;56038;46.080;11.116;2023-02-13T18:54:05;101271.28;;;7.45;50.66
68988;BME280;56038;46.080;11.116;2023-02-13T18:59:08;101273.84;;;7.37;50.45
68988;BME280;56038;46.080;11.116;2023-02-13T19:04:11;101285.06;;;7.24;50.86
68988;BME280;56038;46.080;11.116;2023-02-13T19:09:13;101284.16;;;7.16;50.92
68988;BME280;56038;46.080;11.116;2023-02-13T19:14:16;101292.78;;;7.09;50.68
68988;BME280;56038;46.080;11.116;2023-02-13T19:19:17;101296.25;;;7.08;50.49
68988;BME280;56038;46.080;11.116;2023-02-13T19:24:19;101298.81;;;6.97;51.06
68988;BME280;56038;46.080;11.116;2023-02-13T19:29:22;101308.28;;;6.92;51.10
68988;BME280;56038;46.080;11.116;2023-02-13T19:34:24;101299.59;;;6.87;51.17
68988;BME280;56038;46.080;11.116;2023-02-13T19:39:27;101309.03;;;6.76;51.81
68988;BME280;56038;46.080;11.116;2023-02-13T19:44:31;101304.69;;;6.72;51.94
68988;BME280;56038;46.080;11.116;2023-02-13T19:49:33;101318.53;;;6.68;52.26
68988;BME280;56038;46.080;11.116;2023-02-13T19:54:34;101314.97;;;6.56;53.23
68988;BME280;56038;46.080;11.116;2023-02-13T19:59:38;101323.47;;;6.36;53.87
68988;BME280;56038;46.080;11.116;2023-02-13T20:04:39;101332.97;;;6.32;53.35
68988;BME280;56038;46.080;11.116;2023-02-13T20:09:42;101334.59;;;6.24;53.41
68988;BME280;56038;46.080;11.116;2023-02-13T20:14:45;101339.75;;;6.18;53.24
68988;BME280;56038;46.080;11.116;2023-02-13T20:19:50;101337.97;;;6.15;53.20
68988;BME280;56038;46.080;11.116;2023-02-13T20:24:52;101331.03;;;6.13;53.33
68988;BME280;56038;46.080;11.116;2023-02-13T20:29:56;101340.50;;;6.05;53.27
68988;BME280;56038;46.080;11.116;2023-02-13T20:35:00;101343.94;;;6.02;54.18
68988;BME280;56038;46.080;11.116;2023-02-13T20:40:02;101344.75;;;5.99;53.83
68988;BME280;56038;46.080;11.116;2023-02-13T20:45:07;101342.09;;;5.93;54.27
68988;BME280;56038;46.080;11.116;2023-02-13T20:50:09;101352.28;;;5.81;54.06
68988;BME280;56038;46.080;11.116;2023-02-13T20:55:11;101356.56;;;5.75;54.30
68988;BME280;56038;46.080;11.116;2023-02-13T21:00:15;101359.13;;;5.71;54.56
68988;BME280;56038;46.080;11.116;2023-02-13T21:05:17;101352.06;;;5.61;54.49
68988;BME280;56038;46.080;11.116;2023-02-13T21:10:20;101355.50;;;5.57;54.82
68988;BME280;56038;46.080;11.116;2023-02-13T21:15:23;101351.94;;;5.52;54.90
68988;BME280;56038;46.080;11.116;2023-02-13T21:20:25;101347.56;;;5.45;54.95
68988;BME280;56038;46.080;11.116;2023-02-13T21:25:27;101355.28;;;5.39;55.26
68988;BME280;56038;46.080;11.116;2023-02-13T21:30:30;101353.38;;;5.26;56.29
68988;BME280;56038;46.080;11.116;2023-02-13T21:35:32;101350.72;;;5.21;55.92
68988;BME280;56038;46.080;11.116;2023-02-13T21:40:34;101356.81;;;5.26;55.95
68988;BME280;56038;46.080;11.116;2023-02-13T21:45:37;101354.06;;;5.16;55.80
68988;BME280;56038;46.080;11.116;2023-02-13T21:50:38;101355.72;;;5.07;56.47
68988;BME280;56038;46.080;11.116;2023-02-13T21:55:40;101361.56;;;4.94;56.87
68988;BME280;56038;46.080;11.116;2023-02-13T22:00:43;101362.25;;;4.84;56.81
68988;BME280;56038;46.080;11.116;2023-02-13T22:05:45;101362.94;;;4.72;57.29
68988;BME280;56038;46.080;11.116;2023-02-13T22:10:53;101353.38;;;4.68;58.20
68988;BME280;56038;46.080;11.116;2023-02-13T22:16:00;101362.13;;;4.73;57.92
68988;BME280;56038;46.080;11.116;2023-02-13T22:21:03;101364.69;;;4.73;56.71
68988;BME280;56038;46.080;11.116;2023-02-13T22:26:06;101355.09;;;4.66;57.06
68988;BME280;56038;46.080;11.116;2023-02-13T22:31:10;101352.41;;;4.60;57.43
68988;BME280;56038;46.080;11.116;2023-02-13T22:36:12;101349.69;;;4.53;57.30
68988;BME280;56038;46.080;11.116;2023-02-13T22:41:17;101358.28;;;4.50;57.25
68988;BME280;56038;46.080;11.116;2023-02-13T22:46:22;101363.28;;;4.41;57.37
68988;BME280;56038;46.080;11.116;2023-02-13T22:51:27;101362.34;;;4.36;57.82
68988;BME280;56038;46.080;11.116;2023-02-13T22:56:30;101371.72;;;4.29;57.97
68988;BME280;56038;46.080;11.116;2023-02-13T23:01:34;101359.63;;;4.27;57.98
68988;BME280;56038;46.080;11.116;2023-02-13T23:06:42;101362.22;;;4.28;58.11
68988;BME280;56038;46.080;11.116;2023-02-13T23:11:46;101361.25;;;4.23;58.47
68988;BME280;56038;46.080;11.116;2023-02-13T23:17:06;101362.88;;;4.16;58.20
68988;BME280;56038;46.080;11.116;2023-02-13T23:22:26;101363.56;;;4.08;58.44
68988;BME280;56038;46.080;11.116;2023-02-13T23:27:27;101378.09;;;4.01;58.91
68988;BME280;56038;46.080;11.116;2023-02-13T23:32:31;101371.88;;;3.91;59.49
68988;BME280;56038;46.080;11.116;2023-02-13T23:37:33;101369.31;;;3.93;59.00
68988;BME280;56038;46.080;11.116;2023-02-13T23:42:34;101364.97;;;3.90;59.03
68988;BME280;56038;46.080;11.116;2023-02-13T23:47:37;101363.97;;;3.82;59.27
68988;BME280;56038;46.080;11.116;2023-02-13T23:52:39;101368.84;;;3.67;60.30
68988;BME280;56038;46.080;11.116;2023-02-13T23:57:41;101373.88;;;3.63;59.85
